createdAt,value
2023-08-05T00:00:18.821Z,98473.56
2023-08-05T00:02:45.354Z,98471.16
2023-08-05T00:05:12.123Z,98476.63
2023-08-05T00:07:38.611Z,98480.50
2023-08-05T00:10:05.525Z,98477.28
2023-08-05T00:12:32.044Z,98480.00
2023-08-05T00:14:58.762Z,98482.75
2023-08-05T00:17:25.322Z,98478.56
2023-08-05T00:19:51.798Z,98476.63
2023-08-05T00:22:18.487Z,98479.81
2023-08-05T00:24:45.101Z,98480.63
2023-08-05T00:27:11.605Z,98482.91
2023-08-05T00:29:38.083Z,98484.50
2023-08-05T00:32:05.012Z,98495.44
2023-08-05T00:34:31.501Z,98487.56
2023-08-05T00:36:57.953Z,98482.91
2023-08-05T00:39:24.377Z,98476.47
2023-08-05T00:41:50.808Z,98473.28
2023-08-05T00:44:17.228Z,98470.53
2023-08-05T00:46:43.703Z,98473.97
2023-08-05T00:49:10.970Z,98463.66
2023-08-05T00:51:38.108Z,98465.59
2023-08-05T00:54:05.048Z,98464.16
2023-08-05T00:56:31.865Z,98459.78
2023-08-05T00:58:58.544Z,98462.69
2023-08-05T01:01:25.094Z,98460.75
2023-08-05T01:03:51.678Z,98451.41
2023-08-05T01:06:20.629Z,98451.75
2023-08-05T01:08:48.439Z,98455.94
2023-08-05T01:11:15.806Z,98459.78
2023-08-05T01:13:43.340Z,98461.72
2023-08-05T01:16:09.908Z,98459.47
2023-08-05T01:18:38.548Z,98463.03
2023-08-05T01:21:12.354Z,98470.72
2023-08-05T01:23:57.652Z,98473.00
2023-08-05T01:26:24.837Z,98463.19
2023-08-05T01:28:51.522Z,98466.41
2023-08-05T01:31:18.471Z,98473.00
2023-08-05T01:33:45.648Z,98471.41
2023-08-05T01:36:30.885Z,98471.06
2023-08-05T01:38:57.421Z,98468.34
2023-08-05T01:41:23.964Z,98473.81
2023-08-05T01:43:50.441Z,98474.59
2023-08-05T01:46:16.932Z,98468.50
2023-08-05T01:48:43.379Z,98474.09
2023-08-05T01:51:09.831Z,98481.50
2023-08-05T01:53:36.281Z,98477.16
2023-08-05T01:56:02.696Z,98466.22
2023-08-05T01:58:29.131Z,98468.63
2023-08-05T02:00:55.630Z,98466.66
2023-08-05T02:03:22.349Z,98459.16
2023-08-05T02:05:48.989Z,98448.19
2023-08-05T02:08:15.496Z,98459.16
2023-08-05T02:10:42.382Z,98446.47
2023-08-05T02:13:08.970Z,98452.25
2023-08-05T02:15:35.473Z,98455.78
2023-08-05T02:18:02.959Z,98452.25
2023-08-05T02:20:29.515Z,98447.13
2023-08-05T02:22:55.913Z,98448.56
2023-08-05T02:25:22.433Z,98439.44
2023-08-05T02:27:50.731Z,98431.25
2023-08-05T02:30:17.409Z,98421.09
2023-08-05T02:32:43.856Z,98421.75
2023-08-05T02:35:10.421Z,98407.00
2023-08-05T02:37:36.886Z,98404.94
2023-08-05T02:40:04.303Z,98400.91
2023-08-05T02:42:30.762Z,98390.50
2023-08-05T02:44:57.221Z,98391.06
2023-08-05T02:47:23.753Z,98394.78
2023-08-05T02:49:50.194Z,98393.81
2023-08-05T02:52:16.659Z,98397.56
2023-08-05T02:54:43.103Z,98404.13
2023-08-05T02:57:09.546Z,98409.94
2023-08-05T02:59:35.928Z,98422.16
2023-08-05T03:02:02.378Z,98420.88
2023-08-05T03:04:28.890Z,98417.78
2023-08-05T03:06:55.360Z,98409.13
2023-08-05T03:09:22.035Z,98408.34
2023-08-05T03:11:49.200Z,98425.84
2023-08-05T03:14:15.683Z,98435.66
2023-08-05T03:16:42.681Z,98444.34
2023-08-05T03:19:09.224Z,98451.72
2023-08-05T03:21:35.700Z,98462.34
2023-08-05T03:24:02.138Z,98467.00
2023-08-05T03:26:28.620Z,98464.59
2023-08-05T03:28:55.114Z,98475.81
2023-08-05T03:31:21.642Z,98471.03
2023-08-05T03:33:48.128Z,98472.78
2023-08-05T03:36:14.550Z,98472.28
2023-08-05T03:38:41.017Z,98472.28
2023-08-05T03:41:07.565Z,98464.72
2023-08-05T03:43:34.107Z,98463.63
2023-08-05T03:46:00.686Z,98473.44
2023-08-05T03:48:27.159Z,98474.56
2023-08-05T03:50:53.703Z,98481.13
2023-08-05T03:53:20.199Z,98484.69
2023-08-05T03:55:46.796Z,98486.59
2023-08-05T03:58:13.241Z,98487.91
2023-08-05T04:00:43.945Z,98489.50
2023-08-05T04:03:10.540Z,98481.00
2023-08-05T04:05:37.064Z,98486.94
2023-08-05T04:08:03.727Z,98490.47
2023-08-05T04:10:32.085Z,98493.53
2023-08-05T04:12:58.529Z,98493.53
2023-08-05T04:15:28.928Z,98489.50
2023-08-05T04:18:00.606Z,98486.13
2023-08-05T04:20:28.538Z,98483.72
2023-08-05T04:22:55.271Z,98491.91
2023-08-05T04:25:21.780Z,98481.28
2023-08-05T04:27:48.216Z,98482.94
2023-08-05T04:30:14.726Z,98484.03
2023-08-05T04:32:41.335Z,98490.31
2023-08-05T04:35:08.166Z,98490.31
2023-08-05T04:37:34.663Z,98493.06
2023-08-05T04:40:01.075Z,98485.50
2023-08-05T04:42:27.563Z,98495.78
2023-08-05T04:44:54.024Z,98499.63
2023-08-05T04:47:20.482Z,98504.94
2023-08-05T04:49:46.984Z,98506.06
2023-08-05T04:52:15.075Z,98504.94
2023-08-05T04:54:44.620Z,98510.88
2023-08-05T04:57:12.376Z,98512.81
2023-08-05T04:59:38.859Z,98507.34
2023-08-05T05:02:05.613Z,98519.38
2023-08-05T05:04:32.093Z,98515.84
2023-08-05T05:06:59.151Z,98512.81
2023-08-05T05:09:25.652Z,98501.09
2023-08-05T05:11:54.880Z,98504.00
2023-08-05T05:14:21.785Z,98499.78
2023-08-05T05:16:48.818Z,98497.88
2023-08-05T05:19:15.709Z,98499.94
2023-08-05T05:21:42.129Z,98507.00
2023-08-05T05:24:09.617Z,98501.56
2023-08-05T05:26:36.081Z,98504.94
2023-08-05T05:29:02.606Z,98512.34
2023-08-05T05:31:29.238Z,98520.22
2023-08-05T05:33:55.869Z,98526.94
2023-08-05T05:36:22.318Z,98517.16
2023-08-05T05:38:48.857Z,98516.34
2023-08-05T05:41:17.177Z,98512.16
2023-08-05T05:43:43.707Z,98515.38
2023-08-05T05:46:10.763Z,98518.13
2023-08-05T05:48:37.278Z,98512.31
2023-08-05T05:51:03.858Z,98510.50
2023-08-05T05:53:30.274Z,98511.47
2023-08-05T05:55:56.820Z,98508.41
2023-08-05T05:58:23.290Z,98503.09
2023-08-05T06:00:55.780Z,98492.16
2023-08-05T06:03:22.521Z,98496.94
2023-08-05T06:05:51.608Z,98498.25
2023-08-05T06:08:18.474Z,98489.38
2023-08-05T06:10:45.269Z,98487.09
2023-08-05T06:13:11.928Z,98482.13
2023-08-05T06:15:42.580Z,98485.00
2023-08-05T06:18:09.950Z,98486.75
2023-08-05T06:20:37.374Z,98478.53
2023-08-05T06:23:04.345Z,98479.78
2023-08-05T06:25:30.773Z,98476.19
2023-08-05T06:27:57.244Z,98476.47
2023-08-05T06:30:24.036Z,98482.22
2023-08-05T06:32:50.807Z,98488.66
2023-08-05T06:35:17.463Z,98486.38
2023-08-05T06:37:45.014Z,98491.03
2023-08-05T06:40:12.285Z,98484.94
2023-08-05T06:42:38.802Z,98486.00
2023-08-05T06:45:05.936Z,98491.59
2023-08-05T06:47:32.707Z,98489.34
2023-08-05T06:49:59.491Z,98481.72
2023-08-05T06:52:26.170Z,98486.66
2023-08-05T06:54:52.622Z,98484.72
2023-08-05T06:57:19.371Z,98473.75
2023-08-05T06:59:47.046Z,98479.41
2023-08-05T07:02:13.657Z,98481.16
2023-08-05T07:04:40.159Z,98469.19
2023-08-05T07:07:06.742Z,98469.97
2023-08-05T07:09:33.521Z,98469.97
2023-08-05T07:11:59.987Z,98462.91
2023-08-05T07:14:26.831Z,98458.81
2023-08-05T07:16:53.302Z,98464.09
2023-08-05T07:19:19.788Z,98464.34
2023-08-05T07:21:46.296Z,98464.59
2023-08-05T07:24:12.809Z,98466.66
2023-08-05T07:26:39.258Z,98470.22
2023-08-05T07:29:05.700Z,98468.06
2023-08-05T07:31:32.152Z,98466.69
2023-08-05T07:33:58.729Z,98465.94
2023-08-05T07:36:28.081Z,98464.03
2023-08-05T07:38:55.650Z,98465.63
2023-08-05T07:41:24.539Z,98472.34
2023-08-05T07:43:52.146Z,98464.63
2023-08-05T07:46:20.477Z,98463.38
2023-08-05T07:48:51.098Z,98462.25
2023-08-05T07:51:19.520Z,98461.56
2023-08-05T07:53:49.116Z,98457.56
2023-08-05T07:56:16.726Z,98451.53
2023-08-05T07:58:47.564Z,98459.50
2023-08-05T08:01:20.497Z,98459.16
2023-08-05T08:03:49.007Z,98463.81
2023-08-05T08:06:18.786Z,98456.22
2023-08-05T08:08:47.550Z,98459.66
2023-08-05T08:11:14.573Z,98461.91
2023-08-05T08:13:41.898Z,98457.38
2023-08-05T08:16:08.679Z,98453.63
2023-08-05T08:18:35.311Z,98452.91
2023-08-05T08:21:01.792Z,98450.28
2023-08-05T08:23:28.246Z,98445.19
2023-08-05T08:25:57.972Z,98445.88
2023-08-05T08:28:24.442Z,98439.94
2023-08-05T08:30:58.120Z,98428.38
2023-08-05T08:33:26.465Z,98426.13
2023-08-05T08:35:53.373Z,98423.69
2023-08-05T08:38:20.376Z,98430.22
2023-08-05T08:40:51.744Z,98425.44
2023-08-05T08:43:20.087Z,98424.31
2023-08-05T08:45:54.442Z,98424.38
2023-08-05T08:48:24.575Z,98424.88
2023-08-05T08:50:54.099Z,98418.22
2023-08-05T08:53:22.146Z,98426.34
2023-08-05T08:55:50.177Z,98418.97
2023-08-05T08:58:16.904Z,98417.81
2023-08-05T09:00:43.495Z,98413.59
2023-08-05T09:03:11.059Z,98414.09
2023-08-05T09:05:55.125Z,98416.78
2023-08-05T09:08:21.618Z,98401.91
2023-08-05T09:10:48.066Z,98416.22
2023-08-05T09:13:18.270Z,98409.75
2023-08-05T09:15:46.630Z,98405.28
2023-08-05T09:18:13.210Z,98409.91
2023-08-05T09:20:39.925Z,98413.50
2023-08-05T09:23:08.555Z,98417.00
2023-08-05T09:25:41.498Z,98412.84
2023-08-05T09:28:08.173Z,98405.41
2023-08-05T09:30:36.046Z,98402.19
2023-08-05T09:33:03.079Z,98390.47
2023-08-05T09:35:30.375Z,98390.88
2023-08-05T09:37:57.255Z,98389.81
2023-08-05T09:40:34.052Z,98391.69
2023-08-05T09:43:01.335Z,98397.88
2023-08-05T09:45:35.015Z,98397.59
2023-08-05T09:48:08.765Z,98393.06
2023-08-05T09:50:38.502Z,98390.66
2023-08-05T09:53:07.776Z,98384.66
2023-08-05T09:55:35.607Z,98378.41
2023-08-05T09:58:02.650Z,98372.94
2023-08-05T10:00:29.531Z,98381.41
2023-08-05T10:02:56.759Z,98375.28
2023-08-05T10:05:26.123Z,98373.03
2023-08-05T10:07:54.334Z,98368.34
2023-08-05T10:10:22.019Z,98374.81
2023-08-05T10:13:10.305Z,98373.94
2023-08-05T10:15:41.802Z,98372.03
2023-08-05T10:18:12.088Z,98363.19
2023-08-05T10:20:39.444Z,98362.00
2023-08-05T10:23:08.708Z,98371.59
2023-08-05T10:26:01.902Z,98379.00
2023-08-05T10:28:34.392Z,98361.69
2023-08-05T10:31:04.893Z,98359.41
2023-08-05T10:33:31.451Z,98348.41
2023-08-05T10:36:08.625Z,98354.06
2023-08-05T10:38:42.511Z,98350.00
2023-08-05T10:41:11.345Z,98348.84
2023-08-05T10:43:42.660Z,98346.41
2023-08-05T10:46:09.132Z,98351.19
2023-08-05T10:48:44.666Z,98347.75
2023-08-05T10:51:15.639Z,98338.25
2023-08-05T10:53:59.649Z,98339.22
2023-08-05T10:56:31.062Z,98329.84
2023-08-05T10:59:00.447Z,98324.78
2023-08-05T11:01:55.741Z,98321.50
2023-08-05T11:04:27.755Z,98322.66
2023-08-05T11:06:55.883Z,98320.38
2023-08-05T11:09:23.568Z,98320.06
2023-08-05T11:11:50.564Z,98322.59
2023-08-05T11:14:17.817Z,98323.16
2023-08-05T11:16:47.751Z,98311.50
2023-08-05T11:19:14.619Z,98308.19
2023-08-05T11:21:45.496Z,98300.88
2023-08-05T11:24:19.101Z,98299.19
2023-08-05T11:26:47.565Z,98292.78
2023-08-05T11:29:17.576Z,98289.72
2023-08-05T11:31:51.612Z,98286.09
2023-08-05T11:34:25.696Z,98281.28
2023-08-05T11:36:58.257Z,98280.13
2023-08-05T11:39:25.671Z,98275.41
2023-08-05T11:41:53.837Z,98266.50
2023-08-05T11:44:21.257Z,98256.66
2023-08-05T11:46:58.771Z,98253.69
2023-08-05T11:49:27.542Z,98237.44
2023-08-05T11:51:55.037Z,98240.78
2023-08-05T11:54:39.854Z,98233.00
2023-08-05T11:57:27.094Z,98233.09
2023-08-05T11:59:56.193Z,98228.22
2023-08-05T12:02:25.549Z,98223.53
2023-08-05T12:05:00.125Z,98230.22
2023-08-05T12:07:28.736Z,98224.53
2023-08-05T12:10:31.146Z,98218.09
2023-08-05T12:12:57.744Z,98216.63
2023-08-05T12:15:28.037Z,98215.72
2023-08-05T12:17:56.543Z,98214.97
2023-08-05T12:20:28.297Z,98214.31
2023-08-05T12:22:57.526Z,98212.50
2023-08-05T12:25:25.697Z,98207.72
2023-08-05T12:27:53.028Z,98200.94
2023-08-05T12:30:19.811Z,98205.75
2023-08-05T12:32:46.414Z,98208.00
2023-08-05T12:35:13.568Z,98199.53
2023-08-05T12:37:41.190Z,98198.56
2023-08-05T12:40:12.864Z,98188.19
2023-08-05T12:42:40.329Z,98205.84
2023-08-05T12:45:10.254Z,98200.16
2023-08-05T12:47:38.800Z,98201.56
2023-08-05T12:50:06.610Z,98198.00
2023-08-05T12:52:33.551Z,98182.91
2023-08-05T12:55:00.225Z,98189.22
2023-08-05T12:57:26.979Z,98191.50
2023-08-05T12:59:53.555Z,98193.88
2023-08-05T13:02:23.038Z,98182.66
2023-08-05T13:04:52.677Z,98178.66
2023-08-05T13:07:20.004Z,98174.56
2023-08-05T13:09:46.649Z,98168.91
2023-08-05T13:12:14.468Z,98177.81
2023-08-05T13:14:41.203Z,98173.38
2023-08-05T13:17:07.722Z,98165.00
2023-08-05T13:19:34.255Z,98172.41
2023-08-05T13:22:00.819Z,98176.25
2023-08-05T13:24:27.665Z,98168.28
2023-08-05T13:26:54.189Z,98164.66
2023-08-05T13:29:20.675Z,98159.06
2023-08-05T13:31:47.154Z,98159.03
2023-08-05T13:34:13.595Z,98152.69
2023-08-05T13:36:40.168Z,98149.16
2023-08-05T13:39:06.658Z,98151.50
2023-08-05T13:41:33.463Z,98148.22
2023-08-05T13:44:00.040Z,98146.22
2023-08-05T13:46:26.481Z,98138.34
2023-08-05T13:48:53.071Z,98135.66
2023-08-05T13:51:19.468Z,98127.47
2023-08-05T13:53:45.980Z,98122.47
2023-08-05T13:56:12.426Z,98123.34
2023-08-05T13:58:38.885Z,98125.16
2023-08-05T14:01:05.826Z,98118.28
2023-08-05T14:03:32.387Z,98112.84
2023-08-05T14:05:59.587Z,98109.34
2023-08-05T14:08:29.999Z,98113.31
2023-08-05T14:10:56.508Z,98110.50
2023-08-05T14:13:23.226Z,98110.38
2023-08-05T14:15:53.515Z,98108.69
2023-08-05T14:18:23.151Z,98110.16
2023-08-05T14:20:50.094Z,98103.38
2023-08-05T14:23:16.985Z,98100.19
2023-08-05T14:25:46.241Z,98106.88
2023-08-05T14:28:13.390Z,98102.13
2023-08-05T14:30:40.822Z,98104.09
2023-08-05T14:33:08.202Z,98102.59
2023-08-05T14:35:35.754Z,98091.97
2023-08-05T14:38:03.252Z,98086.44
2023-08-05T14:40:34.056Z,98088.78
2023-08-05T14:43:01.596Z,98086.38
2023-08-05T14:45:28.639Z,98079.31
2023-08-05T14:47:55.279Z,98077.75
2023-08-05T14:50:21.844Z,98070.25
2023-08-05T14:52:49.090Z,98069.91
2023-08-05T14:55:16.442Z,98063.06
2023-08-05T14:57:43.155Z,98056.22
2023-08-05T15:00:13.147Z,98053.16
2023-08-05T15:02:39.898Z,98059.16
2023-08-05T15:05:07.156Z,98062.72
2023-08-05T15:07:33.769Z,98057.16
2023-08-05T15:10:00.337Z,98057.94
2023-08-05T15:12:26.815Z,98043.66
2023-08-05T15:14:53.252Z,98048.41
2023-08-05T15:17:19.761Z,98041.72
2023-08-05T15:19:46.188Z,98034.31
2023-08-05T15:22:14.137Z,98029.25
2023-08-05T15:24:40.777Z,98031.22
2023-08-05T15:27:07.351Z,98029.25
2023-08-05T15:29:33.922Z,98024.13
2023-08-05T15:32:01.585Z,98028.06
2023-08-05T15:34:30.754Z,98028.09
2023-08-05T15:36:57.516Z,98023.72
2023-08-05T15:39:24.566Z,98020.97
2023-08-05T15:41:53.100Z,98026.50
2023-08-05T15:44:19.801Z,98022.94
2023-08-05T15:46:46.322Z,98014.22
2023-08-05T15:49:12.740Z,98013.03
2023-08-05T15:51:39.226Z,98014.59
2023-08-05T15:54:05.754Z,98015.41
2023-08-05T15:56:32.323Z,98005.91
2023-08-05T15:58:58.814Z,97996.44
2023-08-05T16:01:25.650Z,97988.50
2023-08-05T16:03:52.344Z,97983.75
2023-08-05T16:06:18.990Z,97977.44
2023-08-05T16:08:45.595Z,97985.31
2023-08-05T16:11:13.723Z,97975.31
2023-08-05T16:13:40.719Z,97980.78
2023-08-05T16:16:16.479Z,97975.66
2023-08-05T16:18:44.295Z,97963.06
2023-08-05T16:21:18.598Z,97961.88
2023-08-05T16:23:46.581Z,97961.44
2023-08-05T16:26:15.346Z,97958.59
2023-08-05T16:28:42.392Z,97966.41
2023-08-05T16:31:09.097Z,97952.50
2023-08-05T16:33:36.638Z,97947.72
2023-08-05T16:36:05.287Z,97950.41
2023-08-05T16:38:32.771Z,97955.50
2023-08-05T16:40:59.795Z,97947.94
2023-08-05T16:43:26.402Z,97946.31
2023-08-05T16:45:53.235Z,97943.53
2023-08-05T16:48:20.084Z,97941.56
2023-08-05T16:50:46.824Z,97945.94
2023-08-05T16:53:13.772Z,97939.63
2023-08-05T16:55:40.677Z,97937.22
2023-08-05T16:58:07.414Z,97932.84
2023-08-05T17:00:34.282Z,97928.84
2023-08-05T17:03:00.960Z,97929.25
2023-08-05T17:05:27.449Z,97924.50
2023-08-05T17:07:53.988Z,97921.75
2023-08-05T17:10:21.091Z,97929.22
2023-08-05T17:12:47.701Z,97919.34
2023-08-05T17:15:14.309Z,97918.94
2023-08-05T17:17:40.866Z,97918.94
2023-08-05T17:20:08.366Z,97913.78
2023-08-05T17:22:34.953Z,97910.59
2023-08-05T17:25:02.025Z,97912.19
2023-08-05T17:27:28.529Z,97907.03
2023-08-05T17:29:55.188Z,97901.50
2023-08-05T17:32:21.759Z,97898.28
2023-08-05T17:34:48.307Z,97908.13
2023-08-05T17:37:14.909Z,97913.22
2023-08-05T17:39:42.782Z,97911.63
2023-08-05T17:42:09.503Z,97908.03
2023-08-05T17:44:36.143Z,97908.38
2023-08-05T17:47:03.238Z,97904.81
2023-08-05T17:49:29.783Z,97902.00
2023-08-05T17:51:56.331Z,97897.66
2023-08-05T17:54:22.808Z,97909.88
2023-08-05T17:56:49.386Z,97900.75
2023-08-05T17:59:16.621Z,97909.75
2023-08-05T18:01:44.515Z,97907.78
2023-08-05T18:04:19.936Z,97904.97
2023-08-05T18:06:46.824Z,97914.06
2023-08-05T18:09:13.561Z,97925.50
2023-08-05T18:11:40.033Z,97929.66
2023-08-05T18:14:06.828Z,97933.69
2023-08-05T18:16:33.426Z,97945.09
2023-08-05T18:19:00.254Z,97957.06
2023-08-05T18:21:27.165Z,97966.66
2023-08-05T18:23:53.680Z,97971.97
2023-08-05T18:26:23.075Z,97980.53
2023-08-05T18:28:50.856Z,97980.81
2023-08-05T18:31:18.394Z,97968.09
2023-08-05T18:33:45.281Z,97963.38
2023-08-05T18:36:11.920Z,97951.63
2023-08-05T18:38:38.484Z,97946.53
2023-08-05T18:41:06.653Z,97957.00
2023-08-05T18:43:33.673Z,97962.31
2023-08-05T18:46:00.773Z,97960.72
2023-08-05T18:48:27.466Z,97964.88
2023-08-05T18:50:54.027Z,97962.84
2023-08-05T18:53:20.576Z,97961.97
2023-08-05T18:55:48.232Z,97945.34
2023-08-05T18:58:14.894Z,97934.75
2023-08-05T19:00:41.825Z,97936.75
2023-08-05T19:03:08.562Z,97948.69
2023-08-05T19:05:35.277Z,97958.97
2023-08-05T19:08:01.847Z,97951.00
2023-08-05T19:10:28.370Z,97966.03
2023-08-05T19:12:54.866Z,97973.97
2023-08-05T19:15:21.301Z,97972.47
2023-08-05T19:17:48.004Z,97965.22
2023-08-05T19:20:16.644Z,97968.94
2023-08-05T19:22:49.087Z,97967.66
2023-08-05T19:25:15.608Z,97963.88
2023-08-05T19:27:53.464Z,97955.13
2023-08-05T19:30:24.844Z,97950.72
2023-08-05T19:32:54.287Z,97942.66
2023-08-05T19:35:25.325Z,97934.22
2023-08-05T19:37:51.725Z,97942.88
2023-08-05T19:40:18.148Z,97944.47
2023-08-05T19:42:44.608Z,97947.56
2023-08-05T19:45:11.062Z,97951.94
2023-08-05T19:47:41.806Z,97956.91
2023-08-05T19:50:08.993Z,97961.69
2023-08-05T19:52:35.429Z,97956.38
2023-08-05T19:55:01.901Z,97954.56
2023-08-05T19:57:29.577Z,97956.16
2023-08-05T19:59:56.072Z,97955.03
2023-08-05T20:02:22.607Z,97950.97
2023-08-05T20:04:49.175Z,97945.50
2023-08-05T20:07:15.641Z,97951.06
2023-08-05T20:09:42.023Z,97946.13
2023-08-05T20:12:08.834Z,97945.41
2023-08-05T20:14:36.512Z,97949.56
2023-08-05T20:17:02.929Z,97946.81
2023-08-05T20:19:29.365Z,97945.59
2023-08-05T20:21:57.610Z,97937.72
2023-08-05T20:24:24.108Z,97936.13
2023-08-05T20:26:50.796Z,97930.63
2023-08-05T20:29:17.287Z,97920.28
2023-08-05T20:31:43.769Z,97921.44
2023-08-05T20:34:10.251Z,97921.81
2023-08-05T20:36:37.464Z,97919.41
2023-08-05T20:39:05.719Z,97917.72
2023-08-05T20:41:32.160Z,97909.75
2023-08-05T20:43:58.613Z,97916.41
2023-08-05T20:46:25.016Z,97910.22
2023-08-05T20:48:51.478Z,97910.66
2023-08-05T20:51:19.035Z,97915.16
2023-08-05T20:53:45.829Z,97902.34
2023-08-05T20:56:13.455Z,97897.75
2023-08-05T20:58:40.319Z,97900.47
2023-08-05T21:01:13.378Z,97895.78
2023-08-05T21:03:40.267Z,97921.19
2023-08-05T21:06:06.790Z,97967.06
2023-08-05T21:08:33.529Z,97981.63
2023-08-05T21:11:10.593Z,97975.75
2023-08-05T21:13:38.764Z,97968.09
2023-08-05T21:16:09.246Z,97960.16
2023-08-05T21:18:35.816Z,97958.84
2023-08-05T21:21:02.673Z,97948.59
2023-08-05T21:23:29.399Z,97934.44
2023-08-05T21:25:55.945Z,97935.69
2023-08-05T21:28:22.422Z,97930.13
2023-08-05T21:30:58.213Z,97929.09
2023-08-05T21:33:25.141Z,97932.53
2023-08-05T21:35:51.589Z,97928.72
2023-08-05T21:38:18.074Z,97929.31
2023-08-05T21:40:49.465Z,97924.41
2023-08-05T21:43:17.444Z,97922.81
2023-08-05T21:45:57.960Z,97929.44
2023-08-05T21:48:25.678Z,97915.06
2023-08-05T21:50:52.324Z,97902.97
2023-08-05T21:53:18.935Z,97904.09
2023-08-05T21:55:45.871Z,97901.03
2023-08-05T21:58:12.750Z,97904.31
2023-08-05T22:00:39.988Z,97900.44
2023-08-05T22:03:07.374Z,97898.41
2023-08-05T22:05:33.947Z,97890.66
2023-08-05T22:08:00.456Z,97883.59
2023-08-05T22:10:27.070Z,97889.50
2023-08-05T22:12:53.505Z,97887.22
2023-08-05T22:15:20.038Z,97888.63
2023-08-05T22:17:48.193Z,97870.25
2023-08-05T22:20:14.847Z,97883.16
2023-08-05T22:22:41.447Z,97876.09
2023-08-05T22:25:08.845Z,97866.75
2023-08-05T22:27:35.453Z,97869.13
2023-08-05T22:30:01.958Z,97872.28
2023-08-05T22:32:28.558Z,97863.50
2023-08-05T22:34:55.611Z,97861.31
2023-08-05T22:37:22.358Z,97859.50
2023-08-05T22:39:48.847Z,97863.03
2023-08-05T22:42:15.338Z,97857.78
2023-08-05T22:44:41.956Z,97856.44
2023-08-05T22:47:08.380Z,97854.50
2023-08-05T22:49:34.869Z,97851.41
2023-08-05T22:52:01.300Z,97858.94
2023-08-05T22:54:27.842Z,97854.50
2023-08-05T22:56:54.358Z,97855.66
2023-08-05T22:59:20.777Z,97857.59
2023-08-05T23:01:47.196Z,97858.72
2023-08-05T23:04:13.666Z,97864.66
2023-08-05T23:06:40.312Z,97860.75
2023-08-05T23:09:06.722Z,97850.72
2023-08-05T23:11:33.201Z,97853.91
2023-08-05T23:13:59.685Z,97859.38
2023-08-05T23:16:26.154Z,97857.69
2023-08-05T23:18:52.608Z,97853.69
2023-08-05T23:21:19.084Z,97850.84
2023-08-05T23:23:45.736Z,97842.56
2023-08-05T23:26:12.283Z,97847.59
2023-08-05T23:28:38.752Z,97847.31
2023-08-05T23:31:06.177Z,97852.91
2023-08-05T23:33:33.641Z,97849.81
2023-08-05T23:36:00.386Z,97835.72
2023-08-05T23:38:27.211Z,97838.09
2023-08-05T23:40:53.710Z,97838.19
2023-08-05T23:43:20.259Z,97838.19
2023-08-05T23:45:48.310Z,97840.47
2023-08-05T23:48:15.657Z,97842.75
2023-08-05T23:50:42.481Z,97837.66
2023-08-05T23:53:09.349Z,97830.22
2023-08-05T23:55:35.815Z,97827.84
2023-08-05T23:58:02.396Z,97823.19
